Time;durP1;ratioP1;P1;durP2;ratioP2;P2;SDS_P1;SDS_P2;PMS_P1;PMS_P2;Temp;Humidity;BMP_temperature;BMP_pressure;BME280_temperature;BME280_humidity;BME280_pressure;Samples;Min_cycle;Max_cycle;Signal;HPM_P1;HPM_P2
2023/01/09 00:00:39;;;;;;;2.73;0.90;;;8.40;99.90;;;;;;5072314;28;20476;-78
2023/01/09 00:03:04;;;;;;;2.63;0.70;;;8.40;99.90;;;;;;5072426;28;20024;-78
2023/01/09 00:05:30;;;;;;;2.20;0.60;;;8.30;99.90;;;;;;5055557;28;20052;-78
2023/01/09 00:07:55;;;;;;;3.33;0.67;;;8.30;99.90;;;;;;5055551;28;20159;-78
2023/01/09 00:10:21;;;;;;;4.23;0.60;;;8.20;99.90;;;;;;5055718;28;20031;-77
2023/01/09 00:12:47;;;;;;;3.00;0.50;;;8.30;99.90;;;;;;5055622;28;20028;-77
2023/01/09 00:15:12;;;;;;;2.00;0.50;;;8.20;99.90;;;;;;5055593;28;20407;-78
2023/01/09 00:17:38;;;;;;;2.63;0.47;;;8.20;99.90;;;;;;5055487;28;20039;-78
2023/01/09 00:20:06;;;;;;;3.77;0.60;;;8.10;99.90;;;;;;5071966;28;20031;-78
2023/01/09 00:22:32;;;;;;;1.40;0.40;;;8.10;99.90;;;;;;5071944;28;20067;-77
2023/01/09 00:24:57;;;;;;;3.03;0.40;;;8.00;99.90;;;;;;5071984;28;20485;-78
2023/01/09 00:27:23;;;;;;;0.90;0.30;;;8.10;99.90;;;;;;5071971;28;20062;-78
2023/01/09 00:29:49;;;;;;;2.03;0.40;;;8.00;99.90;;;;;;5072009;28;20028;-78
2023/01/09 00:32:15;;;;;;;1.43;0.30;;;8.00;99.90;;;;;;5055098;28;20029;-79
2023/01/09 00:34:42;;;;;;;3.27;0.60;;;8.00;99.90;;;;;;5055333;28;20082;-79
2023/01/09 00:37:11;;;;;;;2.47;0.40;;;7.90;99.90;;;;;;5071115;28;20028;-79
2023/01/09 00:39:38;;;;;;;2.63;0.73;;;7.90;99.90;;;;;;5071987;28;20031;-79
2023/01/09 00:42:06;;;;;;;2.97;0.30;;;7.80;99.90;;;;;;5055610;28;20082;-78
2023/01/09 00:44:38;;;;;;;1.47;0.30;;;7.80;99.90;;;;;;5071782;28;20016;-79
2023/01/09 00:47:32;;;;;;;0.90;0.30;;;7.80;99.90;;;;;;5071843;28;20017;-79
2023/01/09 00:50:02;;;;;;;1.20;0.20;;;7.70;99.90;;;;;;5070279;28;20024;-79
2023/01/09 00:52:31;;;;;;;3.27;0.40;;;7.70;99.90;;;;;;5071749;28;20056;-78
2023/01/09 00:54:58;;;;;;;1.90;0.30;;;7.70;99.90;;;;;;5072083;28;20162;-85
2023/01/09 00:57:24;;;;;;;1.27;0.30;;;7.60;99.90;;;;;;5072916;28;20032;-88
2023/01/09 00:59:51;;;;;;;2.43;0.47;;;7.60;99.90;;;;;;5056118;28;20024;-87
2023/01/09 01:02:17;;;;;;;0.87;0.40;;;7.50;99.90;;;;;;5055333;28;20020;-78
2023/01/09 01:07:39;;;;;;;2.80;0.28;;;7.50;99.90;;;;;;5073184;28;20059;-78
2023/01/09 01:10:19;;;;;;;0.77;0.37;;;7.40;99.90;;;;;;5056619;28;20388;-78
2023/01/09 01:12:46;;;;;;;0.80;0.30;;;7.40;99.90;;;;;;5071463;28;20020;-78
2023/01/09 01:15:12;;;;;;;0.70;0.30;;;7.30;99.90;;;;;;5072892;28;20024;-77
2023/01/09 01:17:39;;;;;;;1.63;0.40;;;7.30;99.90;;;;;;5071529;28;20108;-77
2023/01/09 01:20:09;;;;;;;1.13;0.40;;;7.20;99.90;;;;;;5071648;28;20050;-78
2023/01/09 01:22:34;;;;;;;1.10;0.40;;;7.20;99.90;;;;;;5071271;28;20033;-78
2023/01/09 01:25:00;;;;;;;2.20;0.70;;;7.20;99.90;;;;;;5072715;28;20021;-78
2023/01/09 01:27:27;;;;;;;1.77;0.67;;;7.10;99.90;;;;;;5054842;28;20040;-77
2023/01/09 01:29:53;;;;;;;2.83;0.50;;;7.10;99.90;;;;;;5071336;28;20060;-78
2023/01/09 01:32:19;;;;;;;4.57;0.80;;;6.90;99.90;;;;;;5054781;28;20064;-78
2023/01/09 01:34:44;;;;;;;2.17;0.60;;;7.00;99.90;;;;;;5054845;28;20536;-78
2023/01/09 01:37:10;;;;;;;1.57;0.57;;;7.00;99.90;;;;;;5071408;28;20074;-77
2023/01/09 01:39:36;;;;;;;6.07;0.67;;;7.00;99.90;;;;;;5054691;28;20033;-78
2023/01/09 01:42:05;;;;;;;2.10;0.70;;;7.00;99.90;;;;;;5054663;28;20039;-78
2023/01/09 01:44:59;;;;;;;5.20;0.80;;;6.90;99.90;;;;;;5071155;28;20087;-78
2023/01/09 01:48:00;;;;;;;1.47;0.70;;;6.90;99.90;;;;;;5072505;28;20035;-79
2023/01/09 01:50:45;;;;;;;2.17;0.70;;;6.80;99.90;;;;;;5073484;28;20035;-77
2023/01/09 01:53:18;;;;;;;2.70;0.70;;;6.80;99.90;;;;;;5074904;28;20032;-78
2023/01/09 01:56:09;;;;;;;1.93;0.63;;;6.80;99.90;;;;;;5074692;28;20025;-78
2023/01/09 01:58:44;;;;;;;2.00;0.80;;;6.80;99.90;;;;;;5076019;28;20074;-77
2023/01/09 02:01:11;;;;;;;2.63;0.87;;;6.80;99.90;;;;;;5074728;28;20024;-78
2023/01/09 02:03:38;;;;;;;3.27;0.73;;;6.80;99.90;;;;;;5076101;28;20109;-78
2023/01/09 02:06:04;;;;;;;4.20;1.23;;;6.70;99.90;;;;;;5074669;28;20020;-78
2023/01/09 02:08:31;;;;;;;2.90;0.80;;;6.70;99.90;;;;;;5074608;28;20082;-77
2023/01/09 02:10:56;;;;;;;3.13;0.77;;;6.70;99.90;;;;;;5074738;28;20124;-77
2023/01/09 02:13:24;;;;;;;2.53;0.70;;;6.60;99.90;;;;;;5074618;28;20039;-77
2023/01/09 02:16:08;;;;;;;3.30;0.97;;;6.70;99.90;;;;;;5074456;28;20016;-78
2023/01/09 02:19:14;;;;;;;2.15;0.65;;;6.60;99.90;;;;;;5074374;28;20381;-78
2023/01/09 02:21:57;;;;;;;4.23;0.80;;;6.50;99.90;;;;;;5075538;28;20586;-79
2023/01/09 02:24:47;;;;;;;2.40;0.80;;;6.50;99.90;;;;;;5074402;28;20021;-78
2023/01/09 02:27:31;;;;;;;2.87;0.83;;;6.50;99.90;;;;;;5074279;28;20032;-78
2023/01/09 02:30:25;;;;;;;3.78;0.80;;;6.50;99.90;;;;;;5074437;28;20035;-78
2023/01/09 02:32:56;;;;;;;4.47;0.80;;;6.50;99.90;;;;;;5075343;28;20503;-78
2023/01/09 02:35:52;;;;;;;3.00;0.90;;;6.40;99.90;;;;;;5074062;28;20025;-78
2023/01/09 02:38:34;;;;;;;4.83;0.80;;;6.40;99.90;;;;;;5074145;28;20040;-78
2023/01/09 02:41:24;;;;;;;3.27;1.20;;;6.40;99.90;;;;;;5075258;28;20067;-78
2023/01/09 02:44:19;;;;;;;4.20;0.90;;;6.40;99.90;;;;;;5073989;28;20093;-79
2023/01/09 02:46:45;;;;;;;5.27;1.17;;;6.40;99.90;;;;;;5073880;28;20028;-78
2023/01/09 02:49:12;;;;;;;2.83;0.80;;;6.40;99.90;;;;;;5074137;28;20464;-79
2023/01/09 02:52:06;;;;;;;6.03;1.20;;;6.40;99.90;;;;;;5057409;28;20029;-79
2023/01/09 02:54:42;;;;;;;4.53;0.98;;;6.40;99.90;;;;;;5073718;28;20056;-78
2023/01/09 02:57:23;;;;;;;5.63;1.17;;;6.40;99.90;;;;;;5073507;28;20430;-78
2023/01/09 03:00:11;;;;;;;5.30;1.03;;;6.40;99.90;;;;;;5072931;28;20021;-78
2023/01/09 03:03:02;;;;;;;4.70;1.50;;;6.40;99.90;;;;;;5073673;28;20013;-78
2023/01/09 03:05:49;;;;;;;3.73;1.30;;;6.40;99.90;;;;;;5073527;28;20016;-78
2023/01/09 03:08:19;;;;;;;4.30;1.10;;;6.30;99.90;;;;;;5073567;28;20025;-78
2023/01/09 03:10:55;;;;;;;4.00;1.10;;;6.30;99.90;;;;;;5074672;28;20708;-78
2023/01/09 03:13:24;;;;;;;4.77;1.30;;;6.30;99.90;;;;;;5073320;28;20392;-78
2023/01/09 03:15:53;;;;;;;5.87;1.87;;;6.20;99.90;;;;;;5073220;28;20047;-78
2023/01/09 03:18:23;;;;;;;5.97;1.07;;;6.30;99.90;;;;;;5073055;28;20423;-78
2023/01/09 03:20:50;;;;;;;6.40;1.00;;;6.20;99.90;;;;;;5072995;28;20048;-78
2023/01/09 03:23:16;;;;;;;6.47;1.67;;;6.20;99.90;;;;;;5072953;28;20106;-78
2023/01/09 03:25:41;;;;;;;3.93;1.07;;;6.30;99.90;;;;;;5073054;28;20051;-78
2023/01/09 03:28:16;;;;;;;5.57;1.47;;;6.10;99.90;;;;;;5056271;28;20048;-78
2023/01/09 03:30:42;;;;;;;4.60;1.30;;;6.10;99.90;;;;;;5072985;28;20016;-78
2023/01/09 03:33:08;;;;;;;4.80;1.10;;;6.10;99.90;;;;;;5056310;28;20436;-78
2023/01/09 03:35:33;;;;;;;6.23;1.10;;;6.20;99.90;;;;;;5056223;28;20024;-78
2023/01/09 03:37:59;;;;;;;6.90;1.30;;;6.20;99.90;;;;;;5072725;28;20499;-78
2023/01/09 03:40:24;;;;;;;3.10;1.13;;;6.10;99.90;;;;;;5056606;28;20127;-79
2023/01/09 03:42:50;;;;;;;9.53;1.40;;;6.10;99.90;;;;;;5056082;28;20016;-78
2023/01/09 03:45:16;;;;;;;4.63;0.90;;;6.10;99.90;;;;;;5072658;28;20025;-78
2023/01/09 03:47:41;;;;;;;5.03;1.53;;;6.00;99.90;;;;;;5072925;28;20032;-78
2023/01/09 03:50:08;;;;;;;5.40;1.47;;;6.00;99.90;;;;;;5056284;28;20025;-86
2023/01/09 03:52:34;;;;;;;5.67;1.53;;;6.00;99.90;;;;;;5057200;28;20700;-87
2023/01/09 03:55:00;;;;;;;5.23;1.07;;;6.00;99.90;;;;;;5056423;28;20028;-87
2023/01/09 03:57:26;;;;;;;8.30;1.30;;;6.10;99.90;;;;;;5073330;28;20020;-86
2023/01/09 03:59:52;;;;;;;2.73;1.20;;;6.00;99.90;;;;;;5056495;28;20025;-87
2023/01/09 04:02:17;;;;;;;3.20;1.10;;;5.90;99.90;;;;;;5056376;28;20070;-87
2023/01/09 04:04:43;;;;;;;5.77;1.27;;;5.90;99.90;;;;;;5073037;28;20524;-86
2023/01/09 04:07:08;;;;;;;5.07;1.20;;;5.90;99.90;;;;;;5016489;28;20030;-78
2023/01/09 04:09:34;;;;;;;4.07;1.10;;;5.90;99.90;;;;;;5015723;28;20026;-78
2023/01/09 04:12:00;;;;;;;5.83;1.80;;;5.90;99.90;;;;;;5015004;28;20028;-78
2023/01/09 04:14:25;;;;;;;7.10;1.30;;;5.90;99.90;;;;;;5015863;28;20036;-78
2023/01/09 04:16:51;;;;;;;7.47;1.10;;;5.90;99.90;;;;;;5015767;28;20029;-78
2023/01/09 04:19:16;;;;;;;5.13;1.50;;;5.80;99.90;;;;;;5048614;28;20128;-78
2023/01/09 04:21:42;;;;;;;5.20;1.10;;;5.80;99.90;;;;;;5015523;28;20128;-78
2023/01/09 04:24:08;;;;;;;5.10;1.10;;;5.80;99.90;;;;;;5032049;28;20033;-78
2023/01/09 04:26:33;;;;;;;6.40;1.10;;;5.80;99.90;;;;;;5015852;28;20025;-78
2023/01/09 04:28:59;;;;;;;7.53;1.73;;;5.80;99.90;;;;;;5015787;28;20029;-77
2023/01/09 04:31:25;;;;;;;6.43;1.43;;;5.80;99.90;;;;;;5015734;28;20056;-78
2023/01/09 04:33:50;;;;;;;6.87;1.40;;;5.80;99.90;;;;;;5015757;28;20040;-78
2023/01/09 04:36:16;;;;;;;6.47;1.57;;;5.80;99.90;;;;;;5032148;28;20465;-78
2023/01/09 04:38:42;;;;;;;5.93;1.40;;;5.80;99.90;;;;;;5031798;28;20037;-78
2023/01/09 04:41:07;;;;;;;7.10;1.47;;;5.80;99.90;;;;;;5032104;28;20033;-78
2023/01/09 04:43:33;;;;;;;5.90;1.20;;;5.80;99.90;;;;;;5032100;28;20036;-78
2023/01/09 04:45:59;;;;;;;8.33;1.83;;;5.80;99.90;;;;;;5015555;28;20032;-78
2023/01/09 04:48:24;;;;;;;7.03;1.53;;;5.70;99.90;;;;;;5015377;28;20401;-78
2023/01/09 04:50:50;;;;;;;5.20;1.20;;;5.80;99.90;;;;;;5015348;28;20477;-78
2023/01/09 04:53:15;;;;;;;7.20;2.23;;;5.80;99.90;;;;;;5031809;28;20493;-78
2023/01/09 04:55:41;;;;;;;8.60;1.97;;;5.80;99.90;;;;;;5015520;28;20033;-85
2023/01/09 04:58:07;;;;;;;10.97;2.47;;;5.80;99.90;;;;;;5016017;28;20040;-86
2023/01/09 05:00:33;;;;;;;9.60;1.97;;;5.90;99.90;;;;;;5032270;28;20116;-86
2023/01/09 05:03:01;;;;;;;7.00;2.07;;;5.90;99.90;;;;;;5015772;28;20030;-86
2023/01/09 05:05:27;;;;;;;11.43;2.57;;;6.00;99.90;;;;;;5032350;28;20108;-86
2023/01/09 05:07:52;;;;;;;15.20;1.87;;;6.00;99.90;;;;;;5038023;28;20540;-86
2023/01/09 05:10:18;;;;;;;8.47;1.63;;;6.10;99.90;;;;;;5035908;28;20065;-86
2023/01/09 05:12:44;;;;;;;5.43;2.00;;;6.10;99.90;;;;;;5059032;28;20033;-86
2023/01/09 05:15:10;;;;;;;6.90;2.23;;;6.10;99.90;;;;;;5040773;28;20114;-86
2023/01/09 05:17:35;;;;;;;6.33;1.87;;;6.10;99.90;;;;;;5078136;28;20036;-86
2023/01/09 05:20:01;;;;;;;6.57;1.50;;;6.10;99.90;;;;;;5044314;28;20020;-87
2023/01/09 05:22:27;;;;;;;5.33;1.67;;;6.10;99.90;;;;;;5071081;28;20476;-85
2023/01/09 05:24:53;;;;;;;5.67;1.60;;;6.10;99.90;;;;;;5091694;28;20025;-86
2023/01/09 05:27:19;;;;;;;11.03;1.40;;;6.10;99.90;;;;;;5075810;28;20020;-78
2023/01/09 05:29:44;;;;;;;6.63;1.67;;;6.10;99.90;;;;;;5076533;28;20063;-78
2023/01/09 05:32:10;;;;;;;8.77;2.10;;;6.20;99.90;;;;;;5077673;28;20049;-78
2023/01/09 05:34:36;;;;;;;4.60;1.17;;;6.20;99.90;;;;;;5063246;28;20032;-79
2023/01/09 05:37:01;;;;;;;7.23;1.60;;;6.10;99.90;;;;;;5038303;28;20013;-80
2023/01/09 05:39:27;;;;;;;7.27;1.40;;;6.10;99.90;;;;;;5038465;28;20078;-80
2023/01/09 05:41:53;;;;;;;6.47;1.30;;;6.20;99.90;;;;;;5038496;28;20056;-81
2023/01/09 05:44:18;;;;;;;6.57;1.33;;;6.20;99.90;;;;;;5038103;28;20022;-80
2023/01/09 05:46:44;;;;;;;7.53;1.03;;;6.20;99.90;;;;;;5054804;28;20021;-80
2023/01/09 05:49:10;;;;;;;4.13;1.03;;;6.20;99.90;;;;;;5055119;28;20036;-80
2023/01/09 05:51:35;;;;;;;7.37;1.17;;;6.20;99.90;;;;;;5038411;28;20029;-81
2023/01/09 05:54:02;;;;;;;7.03;1.00;;;6.20;99.90;;;;;;5038280;28;20029;-80
2023/01/09 05:56:28;;;;;;;6.60;1.03;;;6.20;99.90;;;;;;5038985;28;20025;-81
2023/01/09 05:58:54;;;;;;;8.50;1.33;;;6.20;99.90;;;;;;5038159;28;20039;-80
2023/01/09 06:01:20;;;;;;;6.57;1.50;;;6.20;99.90;;;;;;5038277;28;20115;-80
2023/01/09 06:03:46;;;;;;;4.93;1.30;;;6.20;99.90;;;;;;5038554;28;20382;-81
2023/01/09 06:06:12;;;;;;;8.73;1.50;;;6.30;99.90;;;;;;5038245;28;20025;-81
2023/01/09 06:08:37;;;;;;;9.60;1.87;;;6.20;99.90;;;;;;5038172;28;20025;-81
2023/01/09 06:11:03;;;;;;;6.33;1.40;;;6.20;99.90;;;;;;5055105;28;20036;-81
2023/01/09 06:13:29;;;;;;;5.33;1.30;;;6.30;99.90;;;;;;5038155;28;20025;-80
2023/01/09 06:15:54;;;;;;;3.60;1.10;;;6.30;99.90;;;;;;5037891;28;20037;-81
2023/01/09 06:18:20;;;;;;;8.70;1.70;;;6.40;99.90;;;;;;5069428;28;20033;-80
2023/01/09 06:20:46;;;;;;;9.00;1.20;;;6.40;99.90;;;;;;5037579;28;20029;-78
2023/01/09 06:23:11;;;;;;;4.40;1.07;;;6.40;99.90;;;;;;5070973;28;20500;-78
2023/01/09 06:25:37;;;;;;;5.53;1.07;;;6.50;99.90;;;;;;5087705;28;20021;-79
2023/01/09 06:28:03;;;;;;;5.17;1.27;;;6.50;99.90;;;;;;5034018;28;20033;-79
2023/01/09 06:30:28;;;;;;;3.00;1.00;;;6.60;99.90;;;;;;5017900;28;20037;-79
2023/01/09 06:32:54;;;;;;;4.23;1.43;;;6.60;99.90;;;;;;5034755;28;20223;-78
2023/01/09 06:35:21;;;;;;;10.73;1.17;;;6.70;99.90;;;;;;5016960;28;20084;-78
2023/01/09 06:37:50;;;;;;;8.60;1.03;;;6.70;99.90;;;;;;5034380;28;20034;-79
2023/01/09 06:40:16;;;;;;;8.10;1.00;;;6.80;99.90;;;;;;5034543;28;20036;-79
2023/01/09 06:42:43;;;;;;;10.47;1.00;;;6.80;99.90;;;;;;5038049;28;20731;-77
2023/01/09 06:45:10;;;;;;;7.03;1.23;;;6.90;99.90;;;;;;5054727;28;20019;-77
2023/01/09 06:47:35;;;;;;;7.07;1.30;;;6.90;99.90;;;;;;5038551;28;20040;-77
2023/01/09 06:50:01;;;;;;;10.47;1.20;;;6.90;99.90;;;;;;5055273;28;20033;-79
2023/01/09 06:52:26;;;;;;;6.70;1.23;;;6.90;99.90;;;;;;5039099;28;20139;-77
2023/01/09 06:54:52;;;;;;;8.60;1.43;;;7.00;99.90;;;;;;5055674;28;20057;-78
2023/01/09 06:57:18;;;;;;;9.37;1.33;;;7.00;99.90;;;;;;5054041;28;20040;-78
2023/01/09 06:59:43;;;;;;;6.67;1.20;;;7.00;99.90;;;;;;5037327;28;20017;-79
2023/01/09 07:02:20;;;;;;;7.10;1.10;;;7.00;99.90;;;;;;5050586;28;20075;-78
2023/01/09 07:04:46;;;;;;;9.23;1.40;;;7.10;99.90;;;;;;5033951;28;20025;-79
2023/01/09 07:07:12;;;;;;;7.00;1.00;;;7.00;99.90;;;;;;5050361;28;20537;-78
2023/01/09 07:09:38;;;;;;;8.60;1.30;;;7.10;99.90;;;;;;5050630;28;20021;-79
2023/01/09 07:12:04;;;;;;;9.83;1.40;;;7.10;99.90;;;;;;5040422;28;20433;-81
2023/01/09 07:14:30;;;;;;;6.87;1.00;;;7.20;99.90;;;;;;5065103;28;20430;-78
2023/01/09 07:16:56;;;;;;;7.23;1.10;;;7.20;99.90;;;;;;5049861;28;20381;-78
2023/01/09 07:19:21;;;;;;;6.87;1.47;;;7.20;99.90;;;;;;5053429;28;20084;-78
2023/01/09 07:21:47;;;;;;;9.27;1.47;;;7.30;99.90;;;;;;5046548;28;20040;-79
2023/01/09 07:24:13;;;;;;;12.60;1.30;;;7.30;99.90;;;;;;5063240;28;20388;-79
2023/01/09 07:26:38;;;;;;;7.93;1.10;;;7.20;99.90;;;;;;5022850;28;20477;-79
2023/01/09 07:29:04;;;;;;;11.07;1.17;;;7.30;99.90;;;;;;5061027;28;20033;-79
2023/01/09 07:31:30;;;;;;;12.93;1.40;;;7.20;99.90;;;;;;5016597;28;20375;-79
2023/01/09 07:33:56;;;;;;;10.63;1.67;;;7.20;99.90;;;;;;5016938;28;20115;-79
2023/01/09 07:36:21;;;;;;;7.63;1.27;;;7.20;99.90;;;;;;5016652;28;20057;-80
2023/01/09 07:38:47;;;;;;;6.07;1.03;;;7.10;99.90;;;;;;5017206;28;20025;-78
2023/01/09 07:41:13;;;;;;;10.13;2.23;;;7.10;99.90;;;;;;5049784;28;20060;-79
2023/01/09 07:43:38;;;;;;;6.50;1.23;;;7.10;99.90;;;;;;5016577;28;20022;-79
2023/01/09 07:46:06;;;;;;;11.53;1.67;;;7.10;99.90;;;;;;5033398;28;20028;-78
2023/01/09 07:48:32;;;;;;;6.73;1.37;;;7.00;99.90;;;;;;5032955;28;20021;-78
2023/01/09 07:50:58;;;;;;;10.17;1.40;;;7.10;99.90;;;;;;5039253;28;20109;-78
2023/01/09 07:53:23;;;;;;;4.13;1.10;;;7.00;99.90;;;;;;5063885;28;20025;-78
2023/01/09 07:55:49;;;;;;;7.73;1.37;;;7.00;99.90;;;;;;5066397;28;20477;-79
2023/01/09 07:58:15;;;;;;;13.10;2.13;;;7.00;99.90;;;;;;5036419;28;20025;-79
2023/01/09 08:00:40;;;;;;;7.27;1.73;;;7.00;99.90;;;;;;5032755;28;20075;-80
2023/01/09 08:03:06;;;;;;;9.87;1.90;;;7.00;99.90;;;;;;5052506;28;20091;-80
2023/01/09 08:05:32;;;;;;;15.30;2.33;;;7.00;99.90;;;;;;5036073;28;20175;-78
2023/01/09 08:07:57;;;;;;;9.53;1.93;;;7.00;99.90;;;;;;5052782;28;20024;-79
2023/01/09 08:10:23;;;;;;;12.03;2.13;;;7.00;99.90;;;;;;5035998;28;20025;-78
2023/01/09 08:12:49;;;;;;;14.67;3.30;;;7.00;99.90;;;;;;5033743;28;20106;-79
2023/01/09 08:15:15;;;;;;;9.53;2.00;;;6.90;99.90;;;;;;5051679;28;20040;-80
2023/01/09 08:17:43;;;;;;;9.00;2.80;;;6.90;99.90;;;;;;5053280;28;20179;-81
2023/01/09 08:20:10;;;;;;;16.13;3.47;;;6.90;99.90;;;;;;5028516;28;20057;-80
2023/01/09 08:22:37;;;;;;;18.37;3.97;;;6.90;99.90;;;;;;5049193;28;20061;-81
2023/01/09 08:25:03;;;;;;;18.10;3.17;;;6.90;99.90;;;;;;5049099;28;20079;-78
2023/01/09 08:27:29;;;;;;;11.10;3.43;;;6.80;99.90;;;;;;5048918;28;20459;-79
2023/01/09 08:29:54;;;;;;;9.20;3.30;;;6.80;99.90;;;;;;5048948;28;20061;-80
2023/01/09 08:32:20;;;;;;;14.23;4.07;;;6.80;99.90;;;;;;5032189;28;20033;-79
2023/01/09 08:34:46;;;;;;;15.23;3.87;;;6.70;99.90;;;;;;5032030;28;20021;-79
2023/01/09 08:37:14;;;;;;;9.57;3.43;;;6.70;99.90;;;;;;5031974;28;20036;-81
2023/01/09 08:39:40;;;;;;;10.73;3.47;;;6.70;99.90;;;;;;5032653;28;20029;-78
2023/01/09 08:47:33;;;;;;;9.60;3.90;;;6.60;99.90;;;;;;5032739;28;20053;-79
2023/01/09 08:49:59;;;;;;;12.90;4.27;;;6.60;99.90;;;;;;5048875;28;20118;-79
2023/01/09 08:52:25;;;;;;;12.60;3.83;;;6.60;99.90;;;;;;5015487;28;20442;-79
2023/01/09 08:54:51;;;;;;;16.80;5.50;;;6.70;99.90;;;;;;5032087;28;20117;-79
2023/01/09 08:57:17;;;;;;;9.30;4.37;;;6.60;99.90;;;;;;5051789;28;20029;-78
2023/01/09 08:59:42;;;;;;;13.90;5.00;;;6.70;99.90;;;;;;5052844;28;20025;-79
2023/01/09 09:02:09;;;;;;;15.33;4.53;;;6.60;99.90;;;;;;5037275;28;20037;-79
2023/01/09 09:04:34;;;;;;;11.10;4.70;;;6.70;99.90;;;;;;5052611;28;20026;-77
2023/01/09 09:07:00;;;;;;;11.93;5.20;;;6.70;99.90;;;;;;5069217;28;20044;-79
2023/01/09 09:09:26;;;;;;;9.10;4.23;;;6.70;99.90;;;;;;5052492;28;20116;-79
2023/01/09 09:11:51;;;;;;;9.93;4.37;;;6.70;99.90;;;;;;5069272;28;20026;-80
2023/01/09 09:17:01;;;;;;;13.75;5.13;;;6.70;99.90;;;;;;5037309;28;20035;-78
2023/01/09 09:19:27;;;;;;;14.00;5.63;;;6.70;99.90;;;;;;5052906;28;20029;-77
2023/01/09 09:21:52;;;;;;;16.67;5.73;;;6.80;99.90;;;;;;5035619;28;20044;-79
2023/01/09 09:24:18;;;;;;;15.40;6.13;;;6.80;99.90;;;;;;5048218;28;20036;-79
2023/01/09 09:26:44;;;;;;;16.17;6.80;;;6.80;99.90;;;;;;5039107;28;20029;-78
2023/01/09 09:29:10;;;;;;;19.40;6.87;;;6.80;99.90;;;;;;5039154;28;20040;-78
2023/01/09 09:31:37;;;;;;;15.80;6.80;;;6.90;99.90;;;;;;5055746;28;20029;-79
2023/01/09 09:34:04;;;;;;;12.40;6.13;;;6.90;99.90;;;;;;5055397;28;20049;-80
2023/01/09 09:36:30;;;;;;;14.70;5.57;;;6.80;99.90;;;;;;5055218;28;20127;-77
2023/01/09 09:38:56;;;;;;;12.87;5.90;;;6.90;99.90;;;;;;5055131;28;20509;-78
2023/01/09 09:44:45;;;;;;;15.73;5.40;;;6.90;99.90;;;;;;5056784;28;20036;-78
2023/01/09 09:47:23;;;;;;;13.88;4.88;;;6.90;99.90;;;;;;5055179;28;20537;-78
2023/01/09 09:50:13;;;;;;;16.23;5.17;;;6.90;99.90;;;;;;5055299;28;20026;-79
2023/01/09 09:53:09;;;;;;;13.33;5.20;;;6.90;99.90;;;;;;5056297;28;20029;-77
2023/01/09 09:55:38;;;;;;;11.20;4.60;;;6.90;99.90;;;;;;5054462;28;20064;-78
2023/01/09 09:58:33;;;;;;;11.87;5.20;;;6.90;99.90;;;;;;5056097;28;20512;-78
2023/01/09 10:01:00;;;;;;;13.02;4.40;;;6.90;99.90;;;;;;5034234;28;20029;-78
2023/01/09 10:03:43;;;;;;;15.27;5.30;;;7.00;99.90;;;;;;5054778;28;20025;-78
2023/01/09 10:06:31;;;;;;;15.57;5.00;;;7.00;99.90;;;;;;5055016;28;20052;-80
2023/01/09 10:09:06;;;;;;;15.73;6.10;;;7.00;99.90;;;;;;5056268;28;20384;-78
2023/01/09 10:11:55;;;;;;;16.43;5.23;;;7.10;99.90;;;;;;5054677;28;20044;-78
2023/01/09 10:14:22;;;;;;;16.43;6.43;;;7.10;99.90;;;;;;5054619;28;20056;-78
2023/01/09 10:16:53;;;;;;;23.20;7.00;;;7.10;99.90;;;;;;5088121;28;20040;-78
2023/01/09 10:19:38;;;;;;;19.37;7.57;;;7.10;99.90;;;;;;5054440;28;20075;-79
2023/01/09 10:22:15;;;;;;;15.30;6.97;;;7.20;99.90;;;;;;5054292;28;20048;-79
2023/01/09 10:24:50;;;;;;;16.50;8.20;;;7.30;99.90;;;;;;5045005;28;20032;-79
2023/01/09 10:27:27;;;;;;;16.07;7.93;;;7.40;99.90;;;;;;5054112;28;20032;-78
2023/01/09 10:30:02;;;;;;;15.33;7.13;;;7.50;99.90;;;;;;5054029;28;20040;-79
2023/01/09 10:33:00;;;;;;;12.57;6.93;;;7.50;99.90;;;;;;5034322;28;20017;-80
2023/01/09 10:35:38;;;;;;;15.33;7.47;;;7.50;99.90;;;;;;5034345;28;20021;-80
2023/01/09 10:38:05;;;;;;;14.27;6.60;;;7.50;99.90;;;;;;5035708;28;20394;-80
2023/01/09 10:40:54;;;;;;;15.13;5.63;;;7.50;99.90;;;;;;5035631;28;20049;-79
2023/01/09 10:43:27;;;;;;;11.97;5.13;;;7.40;99.90;;;;;;5034186;28;20075;-79
2023/01/09 10:45:59;;;;;;;12.18;4.55;;;7.40;99.90;;;;;;5034650;28;20103;-78
2023/01/09 10:48:36;;;;;;;13.60;5.07;;;7.40;99.90;;;;;;5034517;28;20035;-81
2023/01/09 10:51:08;;;;;;;15.57;4.97;;;7.50;99.90;;;;;;5045451;28;20067;-80
2023/01/09 10:53:38;;;;;;;9.30;4.70;;;7.40;99.90;;;;;;5054190;28;20037;-80
2023/01/09 10:56:21;;;;;;;12.83;4.90;;;7.40;99.90;;;;;;5054487;28;20036;-79
2023/01/09 10:58:47;;;;;;;13.20;5.73;;;7.40;99.90;;;;;;5055201;28;20389;-80
2023/01/09 11:01:23;;;;;;;12.83;5.70;;;7.40;99.90;;;;;;5053883;28;20029;-80
2023/01/09 11:03:48;;;;;;;14.63;6.40;;;7.40;99.90;;;;;;5053675;28;20063;-80
2023/01/09 11:06:22;;;;;;;12.83;6.10;;;7.60;99.90;;;;;;5033857;28;20498;-80
2023/01/09 11:08:54;;;;;;;13.77;5.38;;;8.00;99.90;;;;;;5035379;28;20025;-80
2023/01/09 11:11:34;;;;;;;11.00;4.23;;;8.40;99.90;;;;;;5075522;28;20025;-79
2023/01/09 11:14:17;;;;;;;9.33;3.37;;;8.50;99.90;;;;;;5087212;28;20028;-80
2023/01/09 11:17:00;;;;;;;5.97;2.80;;;8.60;99.90;;;;;;5053524;28;20024;-80
2023/01/09 11:19:27;;;;;;;6.70;2.40;;;8.70;99.90;;;;;;5053543;28;20067;-80
2023/01/09 11:22:15;;;;;;;7.83;2.67;;;8.80;99.90;;;;;;5066758;28;20065;-80
2023/01/09 11:24:41;;;;;;;11.23;3.53;;;8.60;99.90;;;;;;5053184;28;20021;-80
2023/01/09 11:27:12;;;;;;;10.40;3.13;;;8.60;99.90;;;;;;5053370;28;20023;-79
2023/01/09 11:29:42;;;;;;;7.30;3.00;;;8.70;99.90;;;;;;5053099;28;20029;-80
2023/01/09 11:32:22;;;;;;;10.17;3.80;;;8.80;99.90;;;;;;5052297;28;20028;-80
2023/01/09 11:34:48;;;;;;;6.33;2.20;;;8.80;99.90;;;;;;5052754;28;20116;-80
2023/01/09 11:37:22;;;;;;;9.57;3.20;;;8.70;99.90;;;;;;5052970;28;20481;-79
2023/01/09 11:39:48;;;;;;;8.40;2.97;;;8.60;99.90;;;;;;5052955;28;20052;-79
2023/01/09 11:45:13;;;;;;;10.40;4.10;;;8.50;99.90;;;;;;5054068;28;20035;-81
2023/01/09 11:47:39;;;;;;;7.33;3.30;;;8.50;99.90;;;;;;5052605;28;20035;-80
2023/01/09 11:50:23;;;;;;;9.63;3.57;;;8.50;99.90;;;;;;5033226;28;20370;-80
2023/01/09 11:53:11;;;;;;;4.82;2.40;;;8.40;99.90;;;;;;5049501;28;20444;-79
2023/01/09 11:55:36;;;;;;;8.87;3.30;;;8.50;99.90;;;;;;5049753;28;20485;-81
2023/01/09 11:58:02;;;;;;;6.23;2.33;;;8.50;99.90;;;;;;5035837;28;20112;-80
2023/01/09 12:00:34;;;;;;;9.30;2.43;;;8.80;99.90;;;;;;5052453;28;20025;-80
2023/01/09 12:03:49;;;;;;;6.53;1.77;;;9.10;99.90;;;;;;5068041;28;20028;-81
2023/01/09 12:06:24;;;;;;;6.00;1.42;;;9.50;99.90;;;;;;5015504;28;20543;-81
2023/01/09 12:09:01;;;;;;;7.35;1.20;;;10.10;99.90;;;;;;5031786;28;20034;-80
2023/01/09 12:11:41;;;;;;;8.77;1.77;;;10.50;99.90;;;;;;5032552;28;20029;-80
2023/01/09 12:14:18;;;;;;;7.13;1.10;;;11.00;99.90;;;;;;5032434;28;20033;-80
2023/01/09 12:17:14;;;;;;;5.13;1.20;;;11.50;99.90;;;;;;5066936;28;20038;-89
2023/01/09 12:19:59;;;;;;;4.93;0.90;;;11.70;99.90;;;;;;5033768;28;20029;-88
2023/01/09 12:22:40;;;;;;;9.00;1.20;;;12.10;99.90;;;;;;5033547;28;20483;-86
2023/01/09 12:25:12;;;;;;;5.97;0.93;;;12.20;99.90;;;;;;5033809;28;20087;-89
2023/01/09 12:27:55;;;;;;;6.65;1.20;;;12.40;99.90;;;;;;5033406;28;20071;-88
2023/01/09 12:30:21;;;;;;;7.28;0.82;;;12.50;99.90;;;;;;5067162;28;20069;-89
2023/01/09 12:33:05;;;;;;;7.88;1.38;;;12.20;99.90;;;;;;5066083;28;20032;-89
2023/01/09 12:35:37;;;;;;;5.97;1.00;;;11.80;99.90;;;;;;5066331;28;20033;-89
2023/01/09 12:38:28;;;;;;;9.13;1.65;;;11.50;99.90;;;;;;5033820;28;20458;-90
2023/01/09 12:40:56;;;;;;;9.93;1.70;;;11.20;99.90;;;;;;5066962;28;20021;-89
2023/01/09 12:43:41;;;;;;;13.27;2.15;;;11.00;99.90;;;;;;5066904;28;20039;-89
2023/01/09 12:46:14;;;;;;;17.67;2.63;;;10.80;99.90;;;;;;5067467;28;20116;-89
2023/01/09 12:49:03;;;;;;;9.43;1.60;;;10.70;99.90;;;;;;5036017;28;20033;-89
2023/01/09 12:52:08;;;;;;;10.40;2.23;;;10.60;99.90;;;;;;5035130;28;20021;-89
2023/01/09 12:54:50;;;;;;;11.90;2.10;;;10.40;99.90;;;;;;5016056;28;20112;-90
2023/01/09 12:57:37;;;;;;;11.73;2.00;;;10.30;99.90;;;;;;5032738;28;20044;-89
2023/01/09 13:00:14;;;;;;;8.07;2.80;;;10.20;99.90;;;;;;5032780;28;20030;-88
2023/01/09 13:02:58;;;;;;;11.87;2.33;;;10.00;99.90;;;;;;5032764;28;20029;-89
2023/01/09 13:05:34;;;;;;;14.23;1.98;;;9.90;99.90;;;;;;5049336;28;20025;-87
2023/01/09 13:08:04;;;;;;;13.80;2.20;;;9.90;99.90;;;;;;5052987;28;20021;-89
2023/01/09 13:10:43;;;;;;;13.00;1.83;;;9.80;99.90;;;;;;5053054;28;20032;-88
2023/01/09 13:13:16;;;;;;;15.90;2.43;;;9.70;99.90;;;;;;5052764;28;20025;-87
2023/01/09 13:15:47;;;;;;;12.40;1.60;;;9.70;99.90;;;;;;5052574;28;20017;-88
2023/01/09 13:18:21;;;;;;;10.63;1.73;;;9.70;99.90;;;;;;5052377;28;20048;-88
2023/01/09 13:20:55;;;;;;;12.97;1.80;;;9.70;99.90;;;;;;5052964;28;20415;-89
2023/01/09 13:23:42;;;;;;;9.70;1.17;;;9.70;99.90;;;;;;5053448;28;20485;-88
2023/01/09 13:26:23;;;;;;;12.80;1.77;;;9.60;99.90;;;;;;5052982;28;20021;-87
2023/01/09 13:28:59;;;;;;;12.13;1.73;;;9.50;99.90;;;;;;5052977;28;20032;-87